createdAt,value
2019-05-12T00:00:28.738Z,1010.57
2019-05-12T00:01:28.636Z,1010.58
2019-05-12T00:02:28.729Z,1010.58
2019-05-12T00:03:27.667Z,1010.58
2019-05-12T00:04:28.066Z,1010.67
2019-05-12T00:05:27.965Z,1010.70
2019-05-12T00:06:28.465Z,1010.68
2019-05-12T00:07:28.511Z,1010.65
2019-05-12T00:08:27.749Z,1010.74
2019-05-12T00:09:28.275Z,1010.76
2019-05-12T00:10:28.231Z,1010.73
2019-05-12T00:11:28.526Z,1010.72
2019-05-12T00:12:27.793Z,1010.81
2019-05-12T00:13:27.873Z,1010.81
2019-05-12T00:14:28.231Z,1010.80
2019-05-12T00:15:28.074Z,1010.79
2019-05-12T00:16:28.380Z,1010.79
2019-05-12T00:17:28.422Z,1010.80
2019-05-12T00:18:28.317Z,1010.81
2019-05-12T00:19:28.330Z,1010.81
2019-05-12T00:20:28.313Z,1010.85
2019-05-12T00:21:28.283Z,1010.88
2019-05-12T00:22:28.621Z,1010.88
2019-05-12T00:23:28.721Z,1010.91
2019-05-12T00:24:27.976Z,1010.91
2019-05-12T00:25:28.154Z,1010.85
2019-05-12T00:26:28.222Z,1010.86
2019-05-12T00:27:28.332Z,1010.86
2019-05-12T00:28:28.237Z,1010.86
2019-05-12T00:29:28.577Z,1010.86
2019-05-12T00:30:27.719Z,1010.90
2019-05-12T00:31:28.108Z,1010.92
2019-05-12T00:32:28.144Z,1010.89
2019-05-12T00:33:28.278Z,1010.97
2019-05-12T00:34:26.145Z,1010.95
2019-05-12T00:35:28.348Z,1011.02
2019-05-12T00:36:26.121Z,1010.99
2019-05-12T00:37:28.746Z,1011.02
2019-05-12T00:38:27.830Z,1010.99
2019-05-12T00:39:27.847Z,1011.01
2019-05-12T00:40:28.043Z,1011.01
2019-05-12T00:41:28.257Z,1011.05
2019-05-12T00:42:26.060Z,1011.06
2019-05-12T00:43:28.121Z,1011.01
2019-05-12T00:44:27.868Z,1011.03
2019-05-12T00:45:26.031Z,1011.09
2019-05-12T00:46:27.777Z,1011.12
2019-05-12T00:47:27.953Z,1011.08
2019-05-12T00:48:28.238Z,1011.14
2019-05-12T00:49:25.980Z,1011.14
2019-05-12T00:50:25.979Z,1011.23
2019-05-12T00:51:25.970Z,1011.33
2019-05-12T00:52:28.052Z,1011.27
2019-05-12T00:53:39.435Z,1011.37
2019-05-12T00:54:28.428Z,1011.40
2019-05-12T00:55:25.919Z,1011.39
2019-05-12T00:56:27.910Z,1011.40
2019-05-12T00:57:25.901Z,1011.44
2019-05-12T00:58:27.776Z,1011.45
2019-05-12T00:59:27.948Z,1011.45
2019-05-12T01:00:28.181Z,1011.48
2019-05-12T01:01:25.852Z,1011.50
2019-05-12T01:02:25.845Z,1011.51
2019-05-12T01:03:27.977Z,1011.47
2019-05-12T01:04:25.820Z,1011.48
2019-05-12T01:05:25.816Z,1011.46
2019-05-12T01:06:27.693Z,1011.53
2019-05-12T01:07:27.737Z,1011.48
2019-05-12T01:08:27.954Z,1011.50
2019-05-12T01:09:27.997Z,1011.48
2019-05-12T01:10:28.301Z,1011.51
2019-05-12T01:11:25.749Z,1011.50
2019-05-12T01:12:25.746Z,1011.52
2019-05-12T01:13:27.784Z,1011.54
2019-05-12T01:14:27.780Z,1011.56
2019-05-12T01:15:25.703Z,1011.64
2019-05-12T01:16:25.693Z,1011.67
2019-05-12T01:17:28.084Z,1011.70
2019-05-12T01:18:27.885Z,1011.74
2019-05-12T01:19:25.663Z,1011.73
2019-05-12T01:20:28.036Z,1011.74
2019-05-12T01:21:25.637Z,1011.74
2019-05-12T01:22:27.622Z,1011.77
2019-05-12T01:23:27.935Z,1011.79
2019-05-12T01:24:28.001Z,1011.79
2019-05-12T01:25:25.602Z,1011.82
2019-05-12T01:26:25.584Z,1011.83
2019-05-12T01:27:25.575Z,1011.83
2019-05-12T01:28:27.670Z,1011.82
2019-05-12T01:29:28.019Z,1011.90
2019-05-12T01:30:25.547Z,1011.93
2019-05-12T01:31:25.549Z,1011.94
2019-05-12T01:32:25.524Z,1012.00
2019-05-12T01:33:27.534Z,1011.99
2019-05-12T01:34:27.254Z,1012.02
2019-05-12T01:35:27.839Z,1011.97
2019-05-12T01:36:25.476Z,1011.96
2019-05-12T01:37:27.829Z,1011.95
2019-05-12T01:38:25.462Z,1012.04
2019-05-12T01:39:27.611Z,1012.02
2019-05-12T01:40:25.447Z,1012.06
2019-05-12T01:41:25.430Z,1012.05
2019-05-12T01:42:25.416Z,1012.09
2019-05-12T01:43:27.621Z,1012.06
2019-05-12T01:44:25.413Z,1012.06
2019-05-12T01:45:25.378Z,1012.08
2019-05-12T01:46:25.374Z,1012.16
2019-05-12T01:47:25.363Z,1012.13
2019-05-12T01:48:25.353Z,1012.10
2019-05-12T01:49:25.369Z,1012.15
2019-05-12T01:50:25.354Z,1012.08
2019-05-12T01:51:25.321Z,1012.15
2019-05-12T01:52:25.315Z,1012.16
2019-05-12T01:53:25.302Z,1012.18
2019-05-12T01:54:27.689Z,1012.17
2019-05-12T01:55:25.278Z,1012.14
2019-05-12T01:56:25.270Z,1012.17
2019-05-12T01:57:25.252Z,1012.24
2019-05-12T01:58:27.649Z,1012.23
2019-05-12T01:59:25.248Z,1012.29
2019-05-12T02:00:27.901Z,1012.34
2019-05-12T02:01:25.220Z,1012.37
2019-05-12T02:02:25.204Z,1012.36
2019-05-12T02:03:25.205Z,1012.45
2019-05-12T02:04:25.202Z,1012.47
2019-05-12T02:05:27.712Z,1012.50
2019-05-12T02:06:27.682Z,1012.53
2019-05-12T02:07:25.147Z,1012.53
2019-05-12T02:08:25.139Z,1012.52
2019-05-12T02:09:25.145Z,1012.56
2019-05-12T02:10:25.117Z,1012.51
2019-05-12T02:11:25.103Z,1012.53
2019-05-12T02:12:25.117Z,1012.55
2019-05-12T02:13:25.119Z,1012.58
2019-05-12T02:14:27.472Z,1012.53
2019-05-12T02:15:25.073Z,1012.52
2019-05-12T02:16:25.055Z,1012.55
2019-05-12T02:17:25.043Z,1012.58
2019-05-12T02:18:25.036Z,1012.60
2019-05-12T02:19:25.018Z,1012.56
2019-05-12T02:20:25.021Z,1012.55
2019-05-12T02:21:25.001Z,1012.62
2019-05-12T02:22:24.990Z,1012.58
2019-05-12T02:23:24.978Z,1012.58
2019-05-12T02:24:29.763Z,1012.58
2019-05-12T02:25:27.979Z,1012.66
2019-05-12T02:26:24.961Z,1012.64
2019-05-12T02:27:24.942Z,1012.63
2019-05-12T02:28:24.927Z,1012.64
2019-05-12T02:29:24.910Z,1012.66
2019-05-12T02:30:24.932Z,1012.69
2019-05-12T02:31:24.894Z,1012.76
2019-05-12T02:32:29.412Z,1012.75
2019-05-12T02:33:25.875Z,1012.75
2019-05-12T02:34:25.591Z,1012.77
2019-05-12T02:35:24.916Z,1012.78
2019-05-12T02:36:26.122Z,1012.80
2019-05-12T02:37:26.254Z,1012.80
2019-05-12T02:38:25.231Z,1012.86
2019-05-12T02:39:25.084Z,1012.85
2019-05-12T02:40:25.392Z,1012.83
2019-05-12T02:41:26.010Z,1012.88
2019-05-12T02:42:24.776Z,1012.88
2019-05-12T02:43:24.761Z,1012.93
2019-05-12T02:44:25.032Z,1012.95
2019-05-12T02:45:25.726Z,1012.98
2019-05-12T02:46:25.763Z,1012.96
2019-05-12T02:47:24.722Z,1013.01
2019-05-12T02:48:24.731Z,1012.99
2019-05-12T02:49:24.719Z,1012.98
2019-05-12T02:50:24.870Z,1013.03
2019-05-12T02:51:25.078Z,1013.09
2019-05-12T02:52:25.267Z,1013.04
2019-05-12T02:53:25.086Z,1013.06
2019-05-12T02:54:27.060Z,1013.10
2019-05-12T02:55:25.921Z,1013.08
2019-05-12T02:56:25.902Z,1013.13
2019-05-12T02:57:25.595Z,1013.12
2019-05-12T02:58:25.496Z,1013.16
2019-05-12T02:59:25.460Z,1013.19
2019-05-12T03:00:24.587Z,1013.21
2019-05-12T03:01:24.659Z,1013.20
2019-05-12T03:02:24.784Z,1013.15
2019-05-12T03:03:25.286Z,1013.15
2019-05-12T03:04:24.831Z,1013.14
2019-05-12T03:05:24.964Z,1013.23
2019-05-12T03:06:25.258Z,1013.25
2019-05-12T03:07:25.408Z,1013.22
2019-05-12T03:08:25.670Z,1013.21
2019-05-12T03:09:24.616Z,1013.21
2019-05-12T03:10:25.248Z,1013.20
2019-05-12T03:11:24.911Z,1013.24
2019-05-12T03:12:25.577Z,1013.20
2019-05-12T03:13:25.398Z,1013.23
2019-05-12T03:14:25.315Z,1013.24
2019-05-12T03:15:25.194Z,1013.27
2019-05-12T03:16:25.676Z,1013.28
2019-05-12T03:17:25.301Z,1013.30
2019-05-12T03:18:25.287Z,1013.33
2019-05-12T03:19:25.343Z,1013.31
2019-05-12T03:20:24.414Z,1013.35
2019-05-12T03:21:24.667Z,1013.37
2019-05-12T03:22:25.264Z,1013.34
2019-05-12T03:23:24.908Z,1013.34
2019-05-12T03:24:25.117Z,1013.37
2019-05-12T03:25:29.585Z,1013.38
2019-05-12T03:26:25.322Z,1013.38
2019-05-12T03:27:25.543Z,1013.40
2019-05-12T03:28:25.550Z,1013.44
2019-05-12T03:29:25.046Z,1013.45
2019-05-12T03:30:29.131Z,1013.41
2019-05-12T03:31:31.432Z,1013.40
2019-05-12T03:32:27.758Z,1013.40
2019-05-12T03:33:33.068Z,1013.39
2019-05-12T03:34:29.544Z,1013.38
2019-05-12T03:35:32.442Z,1013.41
2019-05-12T03:36:32.282Z,1013.45
2019-05-12T03:37:30.758Z,1013.44
2019-05-12T03:38:27.689Z,1013.47
2019-05-12T03:39:25.002Z,1013.50
2019-05-12T03:40:25.065Z,1013.51
2019-05-12T03:41:25.076Z,1013.52
2019-05-12T03:42:25.273Z,1013.53
2019-05-12T03:43:24.527Z,1013.57
2019-05-12T03:44:25.202Z,1013.59
2019-05-12T03:45:25.155Z,1013.64
2019-05-12T03:46:24.932Z,1013.59
2019-05-12T03:47:25.097Z,1013.65
2019-05-12T03:48:25.301Z,1013.65
2019-05-12T03:49:24.599Z,1013.67
2019-05-12T03:50:24.592Z,1013.70
2019-05-12T03:51:25.088Z,1013.70
2019-05-12T03:52:24.649Z,1013.70
2019-05-12T03:53:24.938Z,1013.77
2019-05-12T03:54:24.622Z,1013.71
2019-05-12T03:55:35.611Z,1013.77
2019-05-12T03:56:26.062Z,1013.78
2019-05-12T03:57:25.319Z,1013.78
2019-05-12T03:58:25.528Z,1013.76
2019-05-12T03:59:25.544Z,1013.84
2019-05-12T04:00:24.877Z,1013.81
2019-05-12T04:01:25.515Z,1013.87
2019-05-12T04:02:25.158Z,1013.87
2019-05-12T04:03:24.677Z,1013.85
2019-05-12T04:04:24.557Z,1013.92
2019-05-12T04:05:24.564Z,1013.89
2019-05-12T04:06:24.744Z,1013.88
2019-05-12T04:07:24.426Z,1013.90
2019-05-12T04:08:24.754Z,1013.96
2019-05-12T04:09:24.712Z,1013.95
2019-05-12T04:10:24.714Z,1014.05
2019-05-12T04:11:24.938Z,1014.05
2019-05-12T04:12:25.434Z,1014.04
2019-05-12T04:13:26.584Z,1014.02
2019-05-12T04:14:25.230Z,1014.03
2019-05-12T04:15:25.585Z,1014.05
2019-05-12T04:16:24.879Z,1014.02
2019-05-12T04:17:24.455Z,1014.07
2019-05-12T04:18:24.691Z,1014.02
2019-05-12T04:19:24.885Z,1014.07
2019-05-12T04:20:25.450Z,1014.10
2019-05-12T04:21:24.504Z,1014.17
2019-05-12T04:22:24.871Z,1014.12
2019-05-12T04:23:24.754Z,1014.16
2019-05-12T04:24:24.976Z,1014.18
2019-05-12T04:25:24.933Z,1014.22
2019-05-12T04:26:25.290Z,1014.21
2019-05-12T04:27:25.198Z,1014.23
2019-05-12T04:28:24.530Z,1014.20
2019-05-12T04:29:25.021Z,1014.26
2019-05-12T04:30:24.981Z,1014.24
2019-05-12T04:31:24.872Z,1014.30
2019-05-12T04:32:25.003Z,1014.37
2019-05-12T04:33:25.737Z,1014.39
2019-05-12T04:34:25.073Z,1014.42
2019-05-12T04:35:25.190Z,1014.44
2019-05-12T04:36:24.797Z,1014.46
2019-05-12T04:37:24.904Z,1014.49
2019-05-12T04:38:24.879Z,1014.47
2019-05-12T04:39:25.320Z,1014.44
2019-05-12T04:40:24.774Z,1014.51
2019-05-12T04:41:25.950Z,1014.56
2019-05-12T04:42:25.108Z,1014.59
2019-05-12T04:43:25.480Z,1014.57
2019-05-12T04:44:25.093Z,1014.64
2019-05-12T04:45:25.538Z,1014.63
2019-05-12T04:46:25.231Z,1014.68
2019-05-12T04:47:25.274Z,1014.69
2019-05-12T04:48:25.743Z,1014.72
2019-05-12T04:49:25.043Z,1014.74
2019-05-12T04:50:24.603Z,1014.76
2019-05-12T04:51:25.971Z,1014.75
2019-05-12T04:52:24.846Z,1014.76
2019-05-12T04:53:25.180Z,1014.77
2019-05-12T04:54:24.760Z,1014.83
2019-05-12T04:55:25.596Z,1014.82
2019-05-12T04:56:25.026Z,1014.83
2019-05-12T04:57:25.358Z,1014.86
2019-05-12T04:58:25.488Z,1014.90
2019-05-12T04:59:25.382Z,1014.90
2019-05-12T05:00:25.753Z,1014.89
2019-05-12T05:01:25.401Z,1014.89
2019-05-12T05:02:24.961Z,1014.90
2019-05-12T05:03:24.751Z,1014.89
2019-05-12T05:04:24.400Z,1014.88
2019-05-12T05:05:24.864Z,1014.94
2019-05-12T05:06:25.402Z,1014.98
2019-05-12T05:07:24.430Z,1014.98
2019-05-12T05:08:24.390Z,1015.04
2019-05-12T05:09:24.599Z,1015.06
2019-05-12T05:10:24.919Z,1015.10
2019-05-12T05:11:25.068Z,1015.07
2019-05-12T05:12:23.936Z,1015.05
2019-05-12T05:13:24.474Z,1015.09
2019-05-12T05:14:24.765Z,1015.12
2019-05-12T05:15:24.995Z,1015.15
2019-05-12T05:16:24.851Z,1015.18
2019-05-12T05:17:24.411Z,1015.16
2019-05-12T05:18:23.927Z,1015.22
2019-05-12T05:19:24.417Z,1015.23
2019-05-12T05:20:23.929Z,1015.30
2019-05-12T05:21:24.010Z,1015.31
2019-05-12T05:22:24.213Z,1015.29
2019-05-12T05:23:24.183Z,1015.29
2019-05-12T05:24:23.599Z,1015.31
2019-05-12T05:25:23.635Z,1015.31
2019-05-12T05:26:27.936Z,1015.32
2019-05-12T05:27:24.723Z,1015.36
2019-05-12T05:28:23.614Z,1015.38
2019-05-12T05:29:24.047Z,1015.32
2019-05-12T05:30:24.316Z,1015.30
2019-05-12T05:31:24.322Z,1015.27
2019-05-12T05:32:23.330Z,1015.31
2019-05-12T05:33:23.837Z,1015.33
2019-05-12T05:34:23.639Z,1015.30
2019-05-12T05:35:23.849Z,1015.34
2019-05-12T05:36:24.968Z,1015.28
2019-05-12T05:37:23.952Z,1015.39
2019-05-12T05:38:23.809Z,1015.37
2019-05-12T05:39:24.286Z,1015.32
2019-05-12T05:40:28.498Z,1015.38
2019-05-12T05:41:24.131Z,1015.43
2019-05-12T05:42:28.424Z,1015.46
2019-05-12T05:43:24.251Z,1015.52
2019-05-12T05:44:24.007Z,1015.54
2019-05-12T05:45:25.907Z,1015.69
2019-05-12T05:46:24.112Z,1015.57
2019-05-12T05:47:25.643Z,1015.55
2019-05-12T05:48:24.206Z,1015.61
2019-05-12T05:49:23.802Z,1015.59
2019-05-12T05:50:25.133Z,1015.62
2019-05-12T05:51:23.914Z,1015.64
2019-05-12T05:52:24.569Z,1015.64
2019-05-12T05:53:24.348Z,1015.65
2019-05-12T05:54:31.132Z,1015.80
2019-05-12T05:55:23.712Z,1015.72
2019-05-12T05:56:37.478Z,1015.73
2019-05-12T05:57:25.774Z,1015.74
2019-05-12T05:58:25.926Z,1015.81
2019-05-12T05:59:31.403Z,1015.80
2019-05-12T06:00:26.190Z,1015.87
2019-05-12T06:01:24.546Z,1015.86
2019-05-12T06:02:31.263Z,1015.88
2019-05-12T06:03:27.805Z,1015.85
2019-05-12T06:04:23.804Z,1015.88
2019-05-12T06:05:26.257Z,1015.93
2019-05-12T06:06:23.794Z,1015.87
2019-05-12T06:07:23.875Z,1015.91
2019-05-12T06:08:23.867Z,1015.91
2019-05-12T06:09:23.621Z,1015.92
2019-05-12T06:10:34.848Z,1015.88
2019-05-12T06:11:28.144Z,1015.94
2019-05-12T06:12:23.997Z,1016.26
2019-05-12T06:13:27.346Z,1015.96
2019-05-12T06:14:23.945Z,1016.00
2019-05-12T06:15:23.566Z,1015.98
2019-05-12T06:16:25.113Z,1016.02
2019-05-12T06:17:23.619Z,1015.97
2019-05-12T06:18:23.967Z,1016.02
2019-05-12T06:19:25.713Z,1016.03
2019-05-12T06:20:23.794Z,1016.09
2019-05-12T06:21:24.184Z,1016.10
2019-05-12T06:22:23.589Z,1016.07
2019-05-12T06:23:24.051Z,1016.09
2019-05-12T06:24:23.912Z,1016.07
2019-05-12T06:25:26.129Z,1016.12
2019-05-12T06:26:28.202Z,1016.08
2019-05-12T06:27:24.290Z,1016.05
2019-05-12T06:28:23.470Z,1016.06
2019-05-12T06:29:24.926Z,1016.10
2019-05-12T06:30:24.274Z,1016.08
2019-05-12T06:31:28.283Z,1016.07
2019-05-12T06:32:25.141Z,1016.07
2019-05-12T06:33:31.290Z,1016.14
2019-05-12T06:34:23.850Z,1016.14
2019-05-12T06:35:24.097Z,1016.17
2019-05-12T06:36:26.981Z,1016.16
2019-05-12T06:37:23.735Z,1016.19
2019-05-12T06:38:23.664Z,1016.19
2019-05-12T06:39:23.581Z,1016.19
2019-05-12T06:40:23.738Z,1016.20
2019-05-12T06:41:25.277Z,1016.26
2019-05-12T06:42:24.232Z,1016.27
2019-05-12T06:43:24.266Z,1016.30
2019-05-12T06:44:24.046Z,1016.32
2019-05-12T06:45:23.484Z,1016.29
2019-05-12T06:46:23.633Z,1016.28
2019-05-12T06:47:24.037Z,1016.40
2019-05-12T06:48:25.667Z,1016.42
2019-05-12T06:49:24.588Z,1016.39
2019-05-12T06:50:23.742Z,1016.39
2019-05-12T06:51:23.792Z,1016.42
2019-05-12T06:52:23.686Z,1016.43
2019-05-12T06:53:26.500Z,1016.45
2019-05-12T06:54:24.734Z,1016.46
2019-05-12T06:55:23.808Z,1016.41
2019-05-12T06:56:23.626Z,1016.50
2019-05-12T06:57:27.820Z,1016.49
2019-05-12T06:58:27.536Z,1016.52
2019-05-12T06:59:23.730Z,1016.56
2019-05-12T07:00:27.926Z,1016.54
2019-05-12T07:01:24.159Z,1016.55
2019-05-12T07:02:24.331Z,1016.58
2019-05-12T07:03:26.175Z,1016.57
2019-05-12T07:04:24.063Z,1016.58
2019-05-12T07:05:23.285Z,1016.63
2019-05-12T07:06:21.944Z,1016.62
2019-05-12T07:07:25.564Z,1016.65
2019-05-12T07:08:27.488Z,1016.62
2019-05-12T07:09:27.960Z,1016.66
2019-05-12T07:10:39.442Z,1016.63
2019-05-12T07:11:24.277Z,1016.64
2019-05-12T07:12:24.822Z,1016.54
2019-05-12T07:13:29.041Z,1016.61
2019-05-12T07:14:27.142Z,1016.62
2019-05-12T07:15:23.383Z,1016.64
2019-05-12T07:16:29.510Z,1016.61
2019-05-12T07:17:23.892Z,1016.64
2019-05-12T07:18:24.367Z,1016.71
2019-05-12T07:19:25.471Z,1016.68
2019-05-12T07:20:23.904Z,1016.66
2019-05-12T07:21:26.574Z,1016.72
2019-05-12T07:22:25.754Z,1016.69
2019-05-12T07:23:25.904Z,1016.68
2019-05-12T07:24:23.852Z,1016.70
2019-05-12T07:25:30.542Z,1016.64
2019-05-12T07:26:23.517Z,1016.65
2019-05-12T07:27:33.738Z,1016.70
2019-05-12T07:28:23.709Z,1016.64
2019-05-12T07:29:23.736Z,1016.69
2019-05-12T07:30:23.987Z,1016.70
2019-05-12T07:31:23.331Z,1016.77
2019-05-12T07:32:24.458Z,1016.77
2019-05-12T07:33:23.329Z,1016.74
2019-05-12T07:34:23.804Z,1016.81
2019-05-12T07:35:23.900Z,1016.89
2019-05-12T07:36:24.103Z,1016.88
2019-05-12T07:37:23.618Z,1016.86
2019-05-12T07:38:25.615Z,1016.90
2019-05-12T07:39:24.060Z,1016.83
2019-05-12T07:40:27.996Z,1016.91
2019-05-12T07:41:23.784Z,1016.90
2019-05-12T07:42:24.863Z,1016.85
2019-05-12T07:43:24.245Z,1016.90
2019-05-12T07:44:22.984Z,1016.90
2019-05-12T07:45:24.976Z,1016.88
2019-05-12T07:46:24.184Z,1016.99
2019-05-12T07:47:27.419Z,1017.01
2019-05-12T07:48:23.271Z,1016.95
2019-05-12T07:49:33.840Z,1016.92
2019-05-12T07:50:26.509Z,1016.87
2019-05-12T07:51:21.476Z,1016.86
2019-05-12T07:52:21.448Z,1017.21
2019-05-12T07:53:23.362Z,1016.80
2019-05-12T07:54:23.473Z,1016.80
2019-05-12T07:55:23.584Z,1016.79
2019-05-12T07:56:25.987Z,1016.93
2019-05-12T07:57:24.213Z,1016.85
2019-05-12T07:58:23.755Z,1016.84
2019-05-12T07:59:28.335Z,1016.79
2019-05-12T08:00:23.556Z,1016.77
2019-05-12T08:01:23.487Z,1016.83
2019-05-12T08:02:25.490Z,1016.86
2019-05-12T08:03:24.285Z,1016.87
2019-05-12T08:04:21.318Z,1017.40
2019-05-12T08:05:21.472Z,1017.07
2019-05-12T08:06:21.311Z,1016.90
2019-05-12T08:07:28.314Z,1016.94
2019-05-12T08:08:23.596Z,1016.86
2019-05-12T08:09:24.180Z,1016.89
2019-05-12T08:10:23.479Z,1017.13
2019-05-12T08:11:23.253Z,1017.00
2019-05-12T08:12:23.729Z,1016.84
2019-05-12T08:13:23.666Z,1016.85
2019-05-12T08:14:25.913Z,1017.62
2019-05-12T08:15:24.506Z,1017.67
2019-05-12T08:16:25.626Z,1017.60
2019-05-12T08:17:24.494Z,1017.61
2019-05-12T08:18:21.171Z,1017.53
2019-05-12T08:19:23.852Z,1017.59
2019-05-12T08:20:21.145Z,1017.59
2019-05-12T08:21:21.139Z,1017.66
2019-05-12T08:22:25.123Z,1017.58
2019-05-12T08:23:23.478Z,1017.65
2019-05-12T08:24:23.512Z,1017.59
2019-05-12T08:25:24.738Z,1017.73
2019-05-12T08:26:23.897Z,1017.69
2019-05-12T08:27:23.368Z,1017.64
2019-05-12T08:28:27.933Z,1017.65
2019-05-12T08:29:24.285Z,1017.70
2019-05-12T08:30:21.085Z,1017.69
2019-05-12T08:31:23.579Z,1017.74
2019-05-12T08:32:23.476Z,1017.74
2019-05-12T08:33:21.018Z,1017.72
2019-05-12T08:34:21.003Z,1017.33
2019-05-12T08:35:29.309Z,1017.86
2019-05-12T08:36:23.615Z,1017.79
2019-05-12T08:37:20.996Z,1017.79
2019-05-12T08:38:20.969Z,1017.91
2019-05-12T08:39:23.073Z,1017.13
2019-05-12T08:40:20.962Z,1017.13
2019-05-12T08:41:23.351Z,1017.10
2019-05-12T08:42:23.629Z,1017.08
2019-05-12T08:43:20.929Z,1017.00
2019-05-12T08:44:24.999Z,1017.11
2019-05-12T08:45:25.688Z,1017.14
2019-05-12T08:46:24.100Z,1017.12
2019-05-12T08:47:20.893Z,1017.09
2019-05-12T08:48:22.350Z,1017.10
2019-05-12T08:49:23.339Z,1017.11
2019-05-12T08:50:23.312Z,1017.14
2019-05-12T08:51:24.456Z,1017.10
2019-05-12T08:52:20.844Z,1017.15
2019-05-12T08:53:23.042Z,1017.14
2019-05-12T08:54:23.119Z,1017.16
2019-05-12T08:55:22.784Z,1017.22
2019-05-12T08:56:24.018Z,1017.18
2019-05-12T08:57:20.815Z,1017.17
2019-05-12T08:58:31.390Z,1017.13
2019-05-12T08:59:24.945Z,1017.12
2019-05-12T09:00:23.671Z,1017.62
2019-05-12T09:01:26.523Z,1017.19
2019-05-12T09:02:23.911Z,1017.22
2019-05-12T09:03:26.883Z,1017.19
2019-05-12T09:04:21.703Z,1017.33
2019-05-12T09:05:25.871Z,1017.25
2019-05-12T09:06:23.593Z,1017.21
2019-05-12T09:07:20.696Z,1017.35
2019-05-12T09:08:20.661Z,1017.32
2019-05-12T09:09:20.647Z,1017.32
2019-05-12T09:10:20.642Z,1017.39
2019-05-12T09:11:20.623Z,1017.42
2019-05-12T09:12:20.739Z,1017.43
2019-05-12T09:13:20.668Z,1017.74
2019-05-12T09:14:20.622Z,1017.29
2019-05-12T09:15:20.596Z,1017.55
2019-05-12T09:16:20.579Z,1017.39
2019-05-12T09:17:20.570Z,1017.80
2019-05-12T09:18:20.565Z,1017.87
2019-05-12T09:19:24.886Z,1017.77
2019-05-12T09:20:21.534Z,1017.79
2019-05-12T09:21:23.650Z,1017.84
2019-05-12T09:22:24.001Z,1017.29
2019-05-12T09:23:20.517Z,1017.83
2019-05-12T09:24:25.854Z,1017.87
2019-05-12T09:25:23.730Z,1017.20
2019-05-12T09:26:26.743Z,1017.24
2019-05-12T09:27:21.466Z,1017.55
2019-05-12T09:28:20.469Z,1017.16
2019-05-12T09:29:20.444Z,1017.28
2019-05-12T09:30:20.428Z,1017.31
2019-05-12T09:31:25.358Z,1017.52
2019-05-12T09:32:23.471Z,1017.19
2019-05-12T09:33:21.345Z,1017.20
2019-05-12T09:34:23.398Z,1017.26
2019-05-12T09:35:20.380Z,1017.26
2019-05-12T09:36:21.702Z,1017.25
2019-05-12T09:37:20.353Z,1017.25
2019-05-12T09:38:23.227Z,1017.29
2019-05-12T09:39:23.361Z,1017.30
2019-05-12T09:40:20.892Z,1017.31
2019-05-12T09:41:20.317Z,1017.40
2019-05-12T09:42:25.601Z,1017.43
2019-05-12T09:43:23.852Z,1017.41
2019-05-12T09:44:25.568Z,1017.35
2019-05-12T09:45:21.270Z,1017.40
2019-05-12T09:46:20.266Z,1017.39
2019-05-12T09:47:27.120Z,1017.43
2019-05-12T09:48:21.254Z,1017.70
2019-05-12T09:49:22.732Z,1017.36
2019-05-12T09:50:23.260Z,1017.41
2019-05-12T09:51:20.202Z,1017.48
2019-05-12T09:52:24.972Z,1017.52
2019-05-12T09:53:23.163Z,1017.48
2019-05-12T09:54:20.178Z,1017.75
2019-05-12T09:55:22.141Z,1018.00
2019-05-12T09:56:20.151Z,1018.01
2019-05-12T09:57:20.143Z,1017.71
2019-05-12T09:58:25.744Z,1017.94
2019-05-12T09:59:23.640Z,1018.02
2019-05-12T10:00:20.112Z,1017.97
2019-05-12T10:01:20.098Z,1018.02
2019-05-12T10:02:20.988Z,1017.97
2019-05-12T10:03:20.090Z,1018.07
2019-05-12T10:04:20.068Z,1018.06
2019-05-12T10:05:20.062Z,1018.06
2019-05-12T10:06:21.390Z,1017.92
2019-05-12T10:07:20.043Z,1017.55
2019-05-12T10:08:20.274Z,1017.86
2019-05-12T10:09:20.135Z,1017.56
2019-05-12T10:10:20.011Z,1017.51
2019-05-12T10:11:20.936Z,1017.47
2019-05-12T10:12:20.003Z,1017.46
2019-05-12T10:13:20.341Z,1017.54
2019-05-12T10:14:23.413Z,1017.83
2019-05-12T10:15:24.790Z,1017.91
2019-05-12T10:16:20.945Z,1017.60
2019-05-12T10:17:23.639Z,1017.56
2019-05-12T10:18:20.943Z,1017.53
2019-05-12T10:19:19.916Z,1018.09
2019-05-12T10:20:21.632Z,1018.11
2019-05-12T10:21:19.895Z,1018.15
2019-05-12T10:22:19.904Z,1017.59
2019-05-12T10:23:24.125Z,1017.52
2019-05-12T10:24:20.859Z,1017.93
2019-05-12T10:25:23.215Z,1018.06
2019-05-12T10:26:20.843Z,1018.07
2019-05-12T10:27:21.194Z,1017.63
2019-05-12T10:28:20.831Z,1017.59
2019-05-12T10:29:20.976Z,1017.60
2019-05-12T10:30:19.810Z,1017.65
2019-05-12T10:31:19.790Z,1017.67
2019-05-12T10:32:19.777Z,1017.87
2019-05-12T10:33:19.787Z,1017.70
2019-05-12T10:34:19.760Z,1017.70
2019-05-12T10:35:21.586Z,1017.65
2019-05-12T10:36:19.731Z,1017.61
2019-05-12T10:37:25.251Z,1017.65
2019-05-12T10:38:20.735Z,1017.65
2019-05-12T10:39:19.706Z,1017.65
2019-05-12T10:40:19.687Z,1017.68
2019-05-12T10:41:19.679Z,1017.61
2019-05-12T10:42:19.666Z,1017.64
2019-05-12T10:43:19.664Z,1017.63
2019-05-12T10:44:19.667Z,1017.67
2019-05-12T10:45:20.743Z,1017.63
2019-05-12T10:46:26.859Z,1017.60
2019-05-12T10:47:20.611Z,1017.61
2019-05-12T10:48:19.605Z,1017.61
2019-05-12T10:49:19.616Z,1017.59
2019-05-12T10:50:19.591Z,1017.57
2019-05-12T10:51:19.577Z,1017.63
2019-05-12T10:52:19.563Z,1017.63
2019-05-12T10:53:19.553Z,1017.59
2019-05-12T10:54:19.553Z,1017.55
2019-05-12T10:55:19.526Z,1017.70
2019-05-12T10:56:19.519Z,1017.65
2019-05-12T10:57:19.511Z,1017.63
2019-05-12T10:58:19.505Z,1017.64
2019-05-12T10:59:30.246Z,1017.60
2019-05-12T11:00:25.125Z,1017.66
2019-05-12T11:01:20.466Z,1017.65
2019-05-12T11:02:20.425Z,1017.66
2019-05-12T11:03:20.447Z,1017.64
2019-05-12T11:04:23.414Z,1017.66
2019-05-12T11:05:23.786Z,1017.65
2019-05-12T11:06:20.418Z,1017.64
2019-05-12T11:07:22.950Z,1017.67
2019-05-12T11:08:20.389Z,1017.62
2019-05-12T11:09:21.387Z,1017.63
2019-05-12T11:10:20.498Z,1017.70
2019-05-12T11:11:19.362Z,1017.71
2019-05-12T11:12:24.403Z,1017.67
2019-05-12T11:13:20.334Z,1017.63
2019-05-12T11:14:20.176Z,1017.62
2019-05-12T11:15:20.318Z,1017.62
2019-05-12T11:16:22.848Z,1017.62
2019-05-12T11:17:20.291Z,1017.59
2019-05-12T11:18:20.507Z,1017.57
2019-05-12T11:19:20.281Z,1017.54
2019-05-12T11:20:19.261Z,1017.56
2019-05-12T11:21:19.254Z,1017.52
2019-05-12T11:22:19.243Z,1017.63
2019-05-12T11:23:19.230Z,1017.60
2019-05-12T11:24:19.238Z,1017.58
2019-05-12T11:25:19.205Z,1017.62
2019-05-12T11:26:19.198Z,1017.65
2019-05-12T11:27:19.186Z,1017.65
2019-05-12T11:28:19.174Z,1017.67
2019-05-12T11:29:19.183Z,1017.53
2019-05-12T11:30:19.155Z,1017.52
2019-05-12T11:31:19.151Z,1017.55
2019-05-12T11:32:19.130Z,1017.57
2019-05-12T11:33:19.255Z,1017.56
2019-05-12T11:34:19.133Z,1017.62
2019-05-12T11:35:19.103Z,1017.65
2019-05-12T11:36:19.096Z,1017.63
2019-05-12T11:37:19.076Z,1017.68
2019-05-12T11:38:19.071Z,1017.62
2019-05-12T11:39:19.060Z,1017.62
2019-05-12T11:40:19.063Z,1017.54
2019-05-12T11:41:20.389Z,1017.61
2019-05-12T11:42:19.028Z,1017.65
2019-05-12T11:43:19.019Z,1017.65
2019-05-12T11:44:19.010Z,1017.62
2019-05-12T11:45:19.057Z,1017.61
2019-05-12T11:46:18.982Z,1017.65
2019-05-12T11:47:24.346Z,1017.63
2019-05-12T11:48:19.966Z,1017.66
2019-05-12T11:49:21.800Z,1017.62
2019-05-12T11:50:19.959Z,1017.62
2019-05-12T11:51:20.819Z,1017.68
2019-05-12T11:52:19.926Z,1017.64
2019-05-12T11:53:21.903Z,1017.68
2019-05-12T11:54:19.897Z,1017.69
2019-05-12T11:55:21.246Z,1017.68
2019-05-12T11:56:19.880Z,1017.77
2019-05-12T11:57:20.152Z,1017.76
2019-05-12T11:58:19.858Z,1017.70
2019-05-12T11:59:18.843Z,1017.68
2019-05-12T12:00:18.843Z,1017.73
2019-05-12T12:01:18.825Z,1017.68
2019-05-12T12:02:20.120Z,1017.72
2019-05-12T12:03:19.797Z,1017.72
2019-05-12T12:04:18.784Z,1017.76
2019-05-12T12:05:18.805Z,1017.77